Terminal Aerodrome Forecast
Issued by NWS

Home | Current Version | Previous Version | Text Only | Print | Product List | Glossary On
Versions: 1 2 3 4 5 6 7 8 9 10 11 12 13 14 15 16 17 18 19 20 21 22
606
FTUS43 KDLH 291508 AAA
TAFHYR
TAF AMD
KHYR 291508Z 2915/3012 25008KT P6SM SCT008 OVC020
      TEMPO 2915/2917 5SM -DZ BKN008
     FM291800 26008G16KT P6SM VCSH SCT012 BKN025
     FM292100 27010G18KT P6SM VCSH SCT020 BKN040
     FM300300 29008KT P6SM SCT050=

USA.gov is the U.S. government's official web portal to all federal, state and local government web resources and services.